createdAt,value
2022-09-06T00:01:23.435Z,84.30
2022-09-06T00:03:50.210Z,85.81
2022-09-06T00:06:18.945Z,85.83
2022-09-06T00:08:46.780Z,85.77
2022-09-06T00:11:14.140Z,86.05
2022-09-06T00:13:40.823Z,85.22
2022-09-06T00:16:11.096Z,84.64
2022-09-06T00:18:38.001Z,86.15
2022-09-06T00:21:12.981Z,86.56
2022-09-06T00:23:39.600Z,87.00
2022-09-06T00:26:06.330Z,86.29
2022-09-06T00:28:32.962Z,85.58
2022-09-06T00:31:07.363Z,86.43
2022-09-06T00:33:34.047Z,87.30
2022-09-06T00:36:01.280Z,86.91
2022-09-06T00:38:28.063Z,86.35
2022-09-06T00:40:54.739Z,86.92
2022-09-06T00:43:21.357Z,86.02
2022-09-06T00:45:48.003Z,85.26
2022-09-06T00:48:15.894Z,85.30
2022-09-06T00:50:44.464Z,84.84
2022-09-06T00:53:10.999Z,85.58
2022-09-06T00:55:37.954Z,86.18
2022-09-06T00:58:04.564Z,86.20
2022-09-06T01:00:31.638Z,85.89
2022-09-06T01:02:58.185Z,86.10
2022-09-06T01:05:44.956Z,87.38
2022-09-06T01:08:38.660Z,87.57
2022-09-06T01:11:49.721Z,86.94
2022-09-06T01:14:53.729Z,85.25
2022-09-06T01:18:08.194Z,85.63
2022-09-06T01:20:47.067Z,84.57
2022-09-06T01:23:44.547Z,84.06
2022-09-06T01:26:48.689Z,84.31
2022-09-06T01:29:24.341Z,83.65
2022-09-06T01:32:00.872Z,83.69
2022-09-06T01:35:16.964Z,84.41
2022-09-06T01:37:43.626Z,84.72
2022-09-06T01:40:10.359Z,83.77
2022-09-06T01:42:39.401Z,83.48
2022-09-06T01:45:10.403Z,84.10
2022-09-06T01:47:45.632Z,84.93
2022-09-06T01:50:46.117Z,84.34
2022-09-06T01:53:43.580Z,85.37
2022-09-06T01:56:35.611Z,85.65
2022-09-06T01:59:13.848Z,84.94
2022-09-06T02:01:49.333Z,83.81
2022-09-06T02:04:18.886Z,83.94
2022-09-06T02:06:52.638Z,84.43
2022-09-06T02:09:23.623Z,83.59
2022-09-06T02:11:55.570Z,82.87
2022-09-06T02:14:28.708Z,82.96
2022-09-06T02:16:58.127Z,83.92
2022-09-06T02:19:32.918Z,84.86
2022-09-06T02:22:03.542Z,84.01
2022-09-06T02:24:32.991Z,83.95
2022-09-06T02:26:59.645Z,83.43
2022-09-06T02:29:27.460Z,83.35
2022-09-06T02:32:00.281Z,83.78
2022-09-06T02:34:27.550Z,83.21
2022-09-06T02:36:55.729Z,84.08
2022-09-06T02:39:22.463Z,84.51
2022-09-06T02:41:49.367Z,84.87
2022-09-06T02:44:16.267Z,84.87
2022-09-06T02:46:42.839Z,85.01
2022-09-06T02:49:09.428Z,85.24
2022-09-06T02:51:38.348Z,84.99
2022-09-06T02:54:05.800Z,84.98
2022-09-06T02:56:33.819Z,85.92
2022-09-06T02:59:00.718Z,86.41
2022-09-06T03:01:27.330Z,86.52
2022-09-06T03:03:53.915Z,86.86
2022-09-06T03:06:20.457Z,87.28
2022-09-06T03:08:47.068Z,87.56
2022-09-06T03:11:13.939Z,87.60
2022-09-06T03:13:40.629Z,87.95
2022-09-06T03:16:07.306Z,88.06
2022-09-06T03:18:34.545Z,88.08
2022-09-06T03:21:01.387Z,88.27
2022-09-06T03:23:29.091Z,88.20
2022-09-06T03:25:56.334Z,88.61
2022-09-06T03:28:23.600Z,88.20
2022-09-06T03:30:51.800Z,87.57
2022-09-06T03:33:19.942Z,87.79
2022-09-06T03:36:01.274Z,87.79
2022-09-06T03:38:29.154Z,87.99
2022-09-06T03:40:56.663Z,88.13
2022-09-06T03:43:24.672Z,88.22
2022-09-06T03:45:53.802Z,88.20
2022-09-06T03:48:21.901Z,88.15
2022-09-06T03:50:51.509Z,88.06
2022-09-06T03:53:19.145Z,88.18
2022-09-06T03:55:47.829Z,88.07
2022-09-06T03:58:16.046Z,88.12
2022-09-06T04:00:42.743Z,88.30
2022-09-06T04:03:09.367Z,88.29
2022-09-06T04:05:36.095Z,88.23
2022-09-06T04:08:03.456Z,88.38
2022-09-06T04:10:31.031Z,88.65
2022-09-06T04:12:57.583Z,88.16
2022-09-06T04:15:24.171Z,87.96
2022-09-06T04:17:50.694Z,88.19
2022-09-06T04:20:17.496Z,87.99
2022-09-06T04:22:44.137Z,88.66
2022-09-06T04:25:11.010Z,89.06
2022-09-06T04:27:37.605Z,89.19
2022-09-06T04:30:04.629Z,89.26
2022-09-06T04:32:32.964Z,89.54
2022-09-06T04:34:59.581Z,89.91
2022-09-06T04:37:26.233Z,89.69
2022-09-06T04:39:52.844Z,89.83
2022-09-06T04:42:19.493Z,89.46
2022-09-06T04:44:46.082Z,89.08
2022-09-06T04:47:15.364Z,89.01
2022-09-06T04:49:42.531Z,89.42
2022-09-06T04:52:09.746Z,89.73
2022-09-06T04:54:36.361Z,89.64
2022-09-06T04:57:03.112Z,89.68
2022-09-06T04:59:29.780Z,89.45
2022-09-06T05:01:56.456Z,89.76
2022-09-06T05:04:23.047Z,89.34
2022-09-06T05:06:49.625Z,89.55
2022-09-06T05:09:16.297Z,89.78
2022-09-06T05:11:42.958Z,89.55
2022-09-06T05:14:09.528Z,89.57
2022-09-06T05:16:36.134Z,89.94
2022-09-06T05:19:02.766Z,89.96
2022-09-06T05:21:29.305Z,90.08
2022-09-06T05:23:58.667Z,89.95
2022-09-06T05:26:25.587Z,90.17
2022-09-06T05:28:52.174Z,90.01
2022-09-06T05:31:33.595Z,89.70
2022-09-06T05:34:00.504Z,89.39
2022-09-06T05:36:28.813Z,89.30
2022-09-06T05:38:56.660Z,89.37
2022-09-06T05:41:24.275Z,89.49
2022-09-06T05:43:50.842Z,89.30
2022-09-06T05:46:17.909Z,89.25
2022-09-06T05:48:44.535Z,89.25
2022-09-06T05:51:13.360Z,89.05
2022-09-06T05:53:44.224Z,88.30
2022-09-06T05:56:12.503Z,88.49
2022-09-06T05:58:39.240Z,88.12
2022-09-06T06:01:19.225Z,86.94
2022-09-06T06:03:57.125Z,86.38
2022-09-06T06:06:26.158Z,86.20
2022-09-06T06:08:53.128Z,85.26
2022-09-06T06:11:19.749Z,84.29
2022-09-06T06:13:46.348Z,83.83
2022-09-06T06:16:15.067Z,83.16
2022-09-06T06:18:41.914Z,82.83
2022-09-06T06:21:09.621Z,82.62
2022-09-06T06:23:36.227Z,82.26
2022-09-06T06:26:03.190Z,81.90
2022-09-06T06:28:29.951Z,81.19
2022-09-06T06:30:56.760Z,81.32
2022-09-06T06:33:23.482Z,80.94
2022-09-06T06:36:04.076Z,80.15
2022-09-06T06:38:34.790Z,79.98
2022-09-06T06:41:06.373Z,80.47
2022-09-06T06:43:37.675Z,81.76
2022-09-06T06:46:05.282Z,81.09
2022-09-06T06:48:32.174Z,79.90
2022-09-06T06:50:58.842Z,79.73
2022-09-06T06:53:25.766Z,80.65
2022-09-06T06:55:52.617Z,81.29
2022-09-06T06:58:19.427Z,81.82
2022-09-06T07:00:46.782Z,81.91
2022-09-06T07:03:13.669Z,82.27
2022-09-06T07:08:30.029Z,83.88
2022-09-06T07:10:56.713Z,84.00
2022-09-06T07:13:23.341Z,83.93
2022-09-06T07:15:49.955Z,83.46
2022-09-06T07:18:16.867Z,82.50
2022-09-06T07:26:18.954Z,73.43
2022-09-06T07:28:47.474Z,72.65
2022-09-06T07:34:01.646Z,69.94
2022-09-06T07:36:28.174Z,68.77
2022-09-06T07:38:54.704Z,67.82
2022-09-06T07:41:21.412Z,67.39
2022-09-06T07:43:48.043Z,66.25
2022-09-06T07:46:17.194Z,65.75
2022-09-06T07:48:45.413Z,65.60
2022-09-06T07:51:17.566Z,65.02
2022-09-06T07:53:52.276Z,63.40
2022-09-06T07:56:22.626Z,63.50
2022-09-06T07:58:51.018Z,63.31
2022-09-06T08:01:27.234Z,62.49
2022-09-06T08:03:54.478Z,60.93
2022-09-06T08:06:22.929Z,61.18
2022-09-06T08:08:57.576Z,58.65
2022-09-06T08:11:26.881Z,61.10
2022-09-06T08:13:57.245Z,64.58
2022-09-06T08:16:25.916Z,61.80
2022-09-06T08:18:57.205Z,61.81
2022-09-06T08:21:26.593Z,59.17
2022-09-06T08:23:58.723Z,56.80
2022-09-06T08:26:26.522Z,56.61
2022-09-06T08:28:55.112Z,56.57
2022-09-06T08:31:21.937Z,55.79
2022-09-06T08:33:48.760Z,55.39
2022-09-06T08:36:15.696Z,53.84
2022-09-06T08:38:42.844Z,53.57
2022-09-06T08:41:15.008Z,53.63
2022-09-06T08:47:02.275Z,54.55
2022-09-06T08:49:36.863Z,51.90
2022-09-06T08:52:26.390Z,50.57
2022-09-06T08:55:13.242Z,50.65
2022-09-06T08:57:49.169Z,52.77
2022-09-06T09:00:15.935Z,50.19
2022-09-06T09:03:01.227Z,49.15
2022-09-06T09:05:36.559Z,48.69
2022-09-06T09:08:21.665Z,50.35
2022-09-06T09:10:57.279Z,50.03
2022-09-06T09:13:35.661Z,48.22
2022-09-06T09:16:02.535Z,47.82
2022-09-06T09:18:33.628Z,48.42
2022-09-06T09:21:00.401Z,48.71
2022-09-06T09:23:30.212Z,48.14
2022-09-06T09:26:02.272Z,48.14
2022-09-06T09:28:28.971Z,46.94
2022-09-06T09:30:57.253Z,48.48
2022-09-06T09:33:35.747Z,47.37
2022-09-06T09:36:07.612Z,47.84
2022-09-06T09:38:43.844Z,47.18
2022-09-06T09:41:23.449Z,47.72
2022-09-06T09:44:04.894Z,46.02
2022-09-06T09:46:36.736Z,46.90
2022-09-06T09:49:13.917Z,47.29
2022-09-06T09:51:43.124Z,47.55
2022-09-06T09:54:11.964Z,49.34
2022-09-06T09:56:44.703Z,47.69
2022-09-06T09:59:27.898Z,52.18
2022-09-06T10:02:01.463Z,53.67
2022-09-06T10:04:44.817Z,49.81
2022-09-06T10:07:21.321Z,46.90
2022-09-06T10:10:04.883Z,45.51
2022-09-06T10:12:40.080Z,46.49
2022-09-06T10:15:11.909Z,45.49
2022-09-06T10:17:51.958Z,43.99
2022-09-06T10:20:19.055Z,42.81
2022-09-06T10:22:48.870Z,42.98
2022-09-06T10:25:21.968Z,45.38
2022-09-06T10:28:11.277Z,45.73
2022-09-06T10:30:48.115Z,44.69
2022-09-06T10:33:26.467Z,42.99
2022-09-06T10:35:56.074Z,43.83
2022-09-06T10:38:43.754Z,43.19
2022-09-06T10:41:39.506Z,42.39
2022-09-06T10:44:21.068Z,43.75
2022-09-06T10:46:50.146Z,43.05
2022-09-06T10:49:19.641Z,43.47
2022-09-06T10:51:56.635Z,42.50
2022-09-06T10:54:24.713Z,42.62
2022-09-06T10:56:59.299Z,42.33
2022-09-06T10:59:41.962Z,43.47
2022-09-06T11:02:27.508Z,44.20
2022-09-06T11:10:45.510Z,43.04
2022-09-06T11:13:25.377Z,43.85
2022-09-06T11:16:08.745Z,46.93
2022-09-06T11:18:53.765Z,44.89
2022-09-06T11:21:59.244Z,43.65
2022-09-06T11:25:02.700Z,43.29
2022-09-06T11:27:32.165Z,44.09
2022-09-06T11:30:01.810Z,42.65
2022-09-06T11:32:39.268Z,42.11
2022-09-06T11:35:20.431Z,42.15
2022-09-06T11:37:50.755Z,41.47
2022-09-06T11:40:27.270Z,40.97
2022-09-06T11:42:55.644Z,40.18
2022-09-06T11:45:52.890Z,41.00
2022-09-06T11:48:26.579Z,41.91
2022-09-06T11:50:59.107Z,39.41
2022-09-06T11:53:31.466Z,39.20
2022-09-06T11:56:00.739Z,39.66
2022-09-06T11:58:32.661Z,39.57
2022-09-06T12:01:16.509Z,39.51
2022-09-06T12:06:38.241Z,40.93
2022-09-06T12:09:29.438Z,38.75
2022-09-06T12:11:56.839Z,37.69
2022-09-06T12:14:52.912Z,39.09
2022-09-06T12:17:21.211Z,38.77
2022-09-06T12:19:53.836Z,37.43
2022-09-06T12:22:29.562Z,36.10
2022-09-06T12:25:02.140Z,36.61
2022-09-06T12:27:50.359Z,37.91
2022-09-06T12:30:31.057Z,38.26
2022-09-06T12:32:58.286Z,38.21
2022-09-06T12:38:17.108Z,35.15
2022-09-06T12:40:51.668Z,36.64
2022-09-06T12:43:19.568Z,36.70
2022-09-06T12:45:50.605Z,35.99
2022-09-06T12:48:29.876Z,36.35
2022-09-06T12:51:04.972Z,38.26
2022-09-06T12:53:34.233Z,36.56
2022-09-06T12:56:09.650Z,36.16
2022-09-06T12:58:40.088Z,35.75
2022-09-06T13:01:22.788Z,35.71
2022-09-06T13:03:58.375Z,35.74
2022-09-06T13:06:27.232Z,35.02
2022-09-06T13:08:57.565Z,34.73
2022-09-06T13:11:36.608Z,34.00
2022-09-06T13:14:21.467Z,33.28
2022-09-06T13:16:51.145Z,33.33
2022-09-06T13:19:32.561Z,31.40
2022-09-06T13:22:00.444Z,35.79
2022-09-06T13:24:38.041Z,36.20
2022-09-06T13:27:23.135Z,34.45
2022-09-06T13:30:02.333Z,33.07
2022-09-06T13:32:29.542Z,33.38
2022-09-06T13:34:58.953Z,36.25
2022-09-06T13:37:31.570Z,35.78
2022-09-06T13:39:59.320Z,35.71
2022-09-06T13:42:38.883Z,35.57
2022-09-06T13:45:27.044Z,34.53
2022-09-06T13:48:03.458Z,33.60
2022-09-06T13:50:41.867Z,37.70
2022-09-06T13:53:08.802Z,39.41
2022-09-06T13:55:35.402Z,38.39
2022-09-06T13:58:01.928Z,39.53
2022-09-06T14:00:28.616Z,39.90
2022-09-06T14:02:55.646Z,39.43
2022-09-06T14:05:22.521Z,38.54
2022-09-06T14:07:49.173Z,37.72
2022-09-06T14:10:15.995Z,35.88
2022-09-06T14:12:42.596Z,35.39
2022-09-06T14:15:10.129Z,35.37
2022-09-06T14:17:39.093Z,35.74
2022-09-06T14:20:12.005Z,36.75
2022-09-06T14:22:41.221Z,35.67
2022-09-06T14:25:08.286Z,35.77
2022-09-06T14:27:35.795Z,37.40
2022-09-06T14:30:02.574Z,36.83
2022-09-06T14:32:29.347Z,37.41
2022-09-06T14:34:55.991Z,36.39
2022-09-06T14:37:22.810Z,35.54
2022-09-06T14:39:50.400Z,37.17
2022-09-06T14:42:17.114Z,36.66
2022-09-06T14:44:43.688Z,39.27
2022-09-06T14:47:10.596Z,40.22
2022-09-06T14:49:44.730Z,39.84
2022-09-06T14:52:11.327Z,40.33
2022-09-06T14:54:37.963Z,40.84
2022-09-06T14:57:04.642Z,41.38
2022-09-06T14:59:31.611Z,40.82
2022-09-06T15:01:58.326Z,40.10
2022-09-06T15:04:26.362Z,39.40
2022-09-06T15:06:52.961Z,40.57
2022-09-06T15:09:19.600Z,40.22
2022-09-06T15:11:50.677Z,38.62
2022-09-06T15:14:23.157Z,38.81
2022-09-06T15:16:55.880Z,39.40
2022-09-06T15:19:27.270Z,40.23
2022-09-06T15:21:55.730Z,39.00
2022-09-06T15:24:22.775Z,39.97
2022-09-06T15:26:49.684Z,40.68
2022-09-06T15:29:17.002Z,41.81
2022-09-06T15:31:43.537Z,41.23
2022-09-06T15:34:10.268Z,41.42
2022-09-06T15:36:37.661Z,41.66
2022-09-06T15:39:05.329Z,42.02
2022-09-06T15:41:34.005Z,42.61
2022-09-06T15:44:02.615Z,43.03
2022-09-06T15:46:35.474Z,43.71
2022-09-06T15:49:05.594Z,43.57
2022-09-06T15:51:33.845Z,43.40
2022-09-06T15:54:01.458Z,44.11
2022-09-06T15:56:28.088Z,44.09
2022-09-06T15:58:54.682Z,43.98
2022-09-06T16:01:24.020Z,44.56
2022-09-06T16:03:55.695Z,44.64
2022-09-06T16:09:05.984Z,44.40
2022-09-06T16:11:35.779Z,44.76
2022-09-06T16:14:04.816Z,45.17
2022-09-06T16:16:31.983Z,44.97
2022-09-06T16:18:59.403Z,44.25
2022-09-06T16:21:29.635Z,44.94
2022-09-06T16:23:59.517Z,45.07
2022-09-06T16:26:29.156Z,45.35
2022-09-06T16:28:55.796Z,45.70
2022-09-06T16:31:23.082Z,45.83
2022-09-06T16:33:50.502Z,45.80
2022-09-06T16:36:18.635Z,46.14
2022-09-06T16:38:45.851Z,45.58
2022-09-06T16:41:17.259Z,46.17
2022-09-06T16:43:45.395Z,46.21
2022-09-06T16:46:12.893Z,46.52
2022-09-06T16:48:42.791Z,46.21
2022-09-06T16:51:15.631Z,46.16
2022-09-06T16:53:44.251Z,46.24
2022-09-06T16:56:13.311Z,46.96
2022-09-06T16:58:43.230Z,47.27
2022-09-06T17:01:10.667Z,47.66
2022-09-06T17:03:38.810Z,47.28
2022-09-06T17:06:06.866Z,47.58
2022-09-06T17:08:36.342Z,47.35
2022-09-06T17:11:07.427Z,48.31
2022-09-06T17:13:34.133Z,48.57
2022-09-06T17:16:22.432Z,48.37
2022-09-06T17:18:49.835Z,49.74
2022-09-06T17:21:16.440Z,49.80
2022-09-06T17:23:43.526Z,49.72
2022-09-06T17:26:10.141Z,49.57
2022-09-06T17:28:38.417Z,50.47
2022-09-06T17:31:05.890Z,52.61
2022-09-06T17:33:33.685Z,53.52
2022-09-06T17:36:12.590Z,54.47
2022-09-06T17:38:43.630Z,55.87
2022-09-06T17:41:28.490Z,55.50
2022-09-06T17:43:55.604Z,54.47
2022-09-06T17:46:28.458Z,55.06
2022-09-06T17:48:55.956Z,55.47
2022-09-06T17:51:22.616Z,55.50
2022-09-06T17:53:51.850Z,55.37
2022-09-06T17:56:19.297Z,54.86
2022-09-06T17:58:56.992Z,54.67
2022-09-06T18:01:27.299Z,54.95
2022-09-06T18:03:57.344Z,55.25
2022-09-06T18:06:25.718Z,55.65
2022-09-06T18:08:55.377Z,55.84
2022-09-06T18:11:27.397Z,56.13
2022-09-06T18:13:59.517Z,55.45
2022-09-06T18:16:27.687Z,55.78
2022-09-06T18:18:57.499Z,55.27
2022-09-06T18:21:26.248Z,55.68
2022-09-06T18:23:55.338Z,55.12
2022-09-06T18:26:22.253Z,55.45
2022-09-06T18:28:48.871Z,55.74
2022-09-06T18:31:20.954Z,55.82
2022-09-06T18:33:47.628Z,56.42
2022-09-06T18:36:17.976Z,56.45
2022-09-06T18:38:45.076Z,56.54
2022-09-06T18:41:33.685Z,56.12
2022-09-06T18:44:02.923Z,55.88
2022-09-06T18:46:34.778Z,56.05
2022-09-06T18:49:01.415Z,56.69
2022-09-06T18:51:28.739Z,57.10
2022-09-06T18:53:56.969Z,57.44
2022-09-06T18:56:24.405Z,57.94
2022-09-06T18:58:58.234Z,58.29
2022-09-06T19:01:26.485Z,58.41
2022-09-06T19:03:53.224Z,58.34
2022-09-06T19:06:22.460Z,58.65
2022-09-06T19:08:50.069Z,58.60
2022-09-06T19:11:18.482Z,58.38
2022-09-06T19:13:46.945Z,58.94
2022-09-06T19:16:14.291Z,59.24
2022-09-06T19:18:42.005Z,60.00
2022-09-06T19:21:15.784Z,59.84
2022-09-06T19:23:44.934Z,60.10
2022-09-06T19:26:14.552Z,59.83
2022-09-06T19:28:41.455Z,60.01
2022-09-06T19:31:18.863Z,60.35
2022-09-06T19:33:47.960Z,60.66
2022-09-06T19:36:15.384Z,61.13
2022-09-06T19:39:02.137Z,61.01
2022-09-06T19:41:30.698Z,60.91
2022-09-06T19:43:58.601Z,60.89
2022-09-06T19:46:26.638Z,60.87
2022-09-06T19:48:56.161Z,61.37
2022-09-06T19:51:24.231Z,61.34
2022-09-06T19:53:53.287Z,61.36
2022-09-06T19:56:26.500Z,61.79
2022-09-06T19:58:58.002Z,61.94
2022-09-06T20:01:29.459Z,61.98
2022-09-06T20:03:56.851Z,61.85
2022-09-06T20:06:23.505Z,61.68
2022-09-06T20:08:55.287Z,61.93
2022-09-06T20:11:23.917Z,62.19
2022-09-06T20:13:50.626Z,62.05
2022-09-06T20:16:20.584Z,62.63
2022-09-06T20:18:48.332Z,62.60
2022-09-06T20:21:15.064Z,62.90
2022-09-06T20:23:42.298Z,62.80
2022-09-06T20:26:15.868Z,63.19
2022-09-06T20:28:44.299Z,63.33
2022-09-06T20:31:18.538Z,63.34
2022-09-06T20:33:49.481Z,63.35
2022-09-06T20:36:17.448Z,63.58
2022-09-06T20:38:45.043Z,63.63
2022-09-06T20:41:20.047Z,63.62
2022-09-06T20:43:51.336Z,63.31
2022-09-06T20:46:19.858Z,63.68
2022-09-06T20:48:47.185Z,63.63
2022-09-06T20:51:21.812Z,63.74
2022-09-06T20:53:52.871Z,63.58
2022-09-06T20:56:22.630Z,64.11
2022-09-06T20:58:51.008Z,64.08
2022-09-06T21:01:22.425Z,63.41
2022-09-06T21:03:51.679Z,63.36
2022-09-06T21:06:18.939Z,64.82
2022-09-06T21:08:45.582Z,65.28
2022-09-06T21:11:12.527Z,65.28
2022-09-06T21:13:39.930Z,64.78
2022-09-06T21:16:07.255Z,65.42
2022-09-06T21:18:35.397Z,66.21
2022-09-06T21:21:07.164Z,66.92
2022-09-06T21:23:36.098Z,67.49
2022-09-06T21:26:08.464Z,67.60
2022-09-06T21:28:37.421Z,67.70
2022-09-06T21:31:05.995Z,68.37
2022-09-06T21:33:33.193Z,68.70
2022-09-06T21:36:07.024Z,68.46
2022-09-06T21:38:34.973Z,69.42
2022-09-06T21:41:02.323Z,73.54
2022-09-06T21:43:29.038Z,77.36
2022-09-06T21:45:55.667Z,77.57
2022-09-06T21:48:22.159Z,79.44
2022-09-06T21:50:48.805Z,80.98
2022-09-06T21:53:16.213Z,80.68
2022-09-06T21:55:43.748Z,81.78
2022-09-06T21:58:12.177Z,83.16
2022-09-06T22:00:39.436Z,85.07
2022-09-06T22:03:07.359Z,86.13
2022-09-06T22:05:34.300Z,87.02
2022-09-06T22:08:01.121Z,87.32
2022-09-06T22:10:27.896Z,87.49
2022-09-06T22:12:54.471Z,87.17
2022-09-06T22:15:21.780Z,87.27
2022-09-06T22:17:48.890Z,85.77
2022-09-06T22:20:15.673Z,87.53
2022-09-06T22:22:45.863Z,88.25
2022-09-06T22:25:13.810Z,87.02
2022-09-06T22:27:41.103Z,87.55
2022-09-06T22:30:08.054Z,86.72
2022-09-06T22:32:34.668Z,86.76
2022-09-06T22:35:01.486Z,85.81
2022-09-06T22:37:28.025Z,86.00
2022-09-06T22:39:54.606Z,84.95
2022-09-06T22:42:21.173Z,85.29
2022-09-06T22:44:47.709Z,85.24
2022-09-06T22:47:14.284Z,85.68
2022-09-06T22:49:40.809Z,86.71
2022-09-06T22:52:07.390Z,87.04
2022-09-06T22:54:33.934Z,87.20
2022-09-06T22:57:00.518Z,87.73
2022-09-06T22:59:27.191Z,87.79
2022-09-06T23:01:53.761Z,87.02
2022-09-06T23:04:20.544Z,87.24
2022-09-06T23:06:47.071Z,87.68
2022-09-06T23:09:14.030Z,87.63
2022-09-06T23:11:40.581Z,87.64
2022-09-06T23:14:07.197Z,88.46
2022-09-06T23:16:33.950Z,88.52
2022-09-06T23:19:00.713Z,88.96
2022-09-06T23:21:27.518Z,89.03
2022-09-06T23:23:55.418Z,89.02
2022-09-06T23:26:24.457Z,89.30
2022-09-06T23:28:56.410Z,90.39
2022-09-06T23:31:28.741Z,90.09
2022-09-06T23:33:57.321Z,90.44
2022-09-06T23:36:24.292Z,90.34
2022-09-06T23:38:50.883Z,90.08
2022-09-06T23:41:17.811Z,90.30
2022-09-06T23:43:44.726Z,90.01
2022-09-06T23:46:14.636Z,89.78
2022-09-06T23:48:41.513Z,90.07
2022-09-06T23:51:08.445Z,90.11
2022-09-06T23:53:35.170Z,90.25
2022-09-06T23:56:02.066Z,90.17
2022-09-06T23:58:28.656Z,91.00
